createdAt,value
2022-10-28T00:01:21.693Z,13.39
2022-10-28T00:03:58.396Z,13.38
2022-10-28T00:06:32.834Z,13.43
2022-10-28T00:09:00.189Z,13.35
2022-10-28T00:11:30.714Z,13.36
2022-10-28T00:14:00.146Z,13.30
2022-10-28T00:16:31.116Z,13.24
2022-10-28T00:19:02.234Z,13.17
2022-10-28T00:21:32.380Z,13.08
2022-10-28T00:23:59.730Z,12.89
2022-10-28T00:26:32.195Z,12.75
2022-10-28T00:29:02.321Z,12.80
2022-10-28T00:31:31.108Z,12.89
2022-10-28T00:34:04.350Z,12.91
2022-10-28T00:36:40.458Z,12.91
2022-10-28T00:39:22.580Z,12.91
2022-10-28T00:41:53.532Z,12.81
2022-10-28T00:44:59.698Z,12.83
2022-10-28T00:47:52.906Z,12.90
2022-10-28T00:50:47.369Z,12.92
2022-10-28T00:53:28.690Z,12.92
2022-10-28T00:55:59.629Z,12.90
2022-10-28T00:58:27.517Z,12.90
2022-10-28T01:00:54.641Z,12.91
2022-10-28T01:03:21.936Z,12.94
2022-10-28T01:05:49.550Z,12.89
2022-10-28T01:08:16.998Z,12.94
2022-10-28T01:10:52.721Z,13.01
2022-10-28T01:13:50.157Z,13.06
2022-10-28T01:16:54.216Z,12.94
2022-10-28T01:19:45.600Z,12.71
2022-10-28T01:22:24.644Z,12.58
2022-10-28T01:25:36.213Z,12.62
2022-10-28T01:28:49.906Z,12.58
2022-10-28T01:31:26.022Z,12.51
2022-10-28T01:34:01.415Z,12.56
2022-10-28T01:36:36.529Z,12.66
2022-10-28T01:39:16.954Z,12.68
2022-10-28T01:42:15.504Z,12.67
2022-10-28T01:45:19.793Z,12.74
2022-10-28T01:48:05.319Z,12.72
2022-10-28T01:50:46.802Z,12.67
2022-10-28T01:53:18.986Z,12.61
2022-10-28T01:55:49.410Z,12.59
2022-10-28T01:58:21.917Z,12.63
2022-10-28T02:00:49.493Z,12.62
2022-10-28T02:03:17.358Z,12.65
2022-10-28T02:05:53.665Z,12.63
2022-10-28T02:08:46.444Z,12.64
2022-10-28T02:11:54.157Z,12.64
2022-10-28T02:14:40.095Z,12.59
2022-10-28T02:17:40.002Z,12.44
2022-10-28T02:21:00.905Z,12.19
2022-10-28T02:24:16.064Z,11.99
2022-10-28T02:26:57.901Z,11.96
2022-10-28T02:29:39.421Z,12.00
2022-10-28T02:32:13.150Z,12.00
2022-10-28T02:34:47.210Z,12.04
2022-10-28T02:37:25.152Z,12.04
2022-10-28T02:39:57.489Z,12.00
2022-10-28T02:42:37.279Z,11.95
2022-10-28T02:45:13.801Z,11.91
2022-10-28T02:47:50.831Z,11.84
2022-10-28T02:50:22.520Z,11.82
2022-10-28T02:52:55.408Z,11.81
2022-10-28T02:55:25.347Z,11.78
2022-10-28T02:57:52.526Z,11.78
2022-10-28T03:00:25.223Z,11.78
2022-10-28T03:02:52.252Z,11.78
2022-10-28T03:05:19.172Z,11.78
2022-10-28T03:07:45.927Z,11.78
2022-10-28T03:10:12.728Z,11.80
2022-10-28T03:12:39.492Z,11.74
2022-10-28T03:15:07.080Z,11.69
2022-10-28T03:17:33.853Z,11.70
2022-10-28T03:20:00.637Z,11.68
2022-10-28T03:22:27.421Z,11.72
2022-10-28T03:24:54.217Z,11.69
2022-10-28T03:27:21.019Z,11.68
2022-10-28T03:29:47.781Z,11.69
2022-10-28T03:32:14.692Z,11.73
2022-10-28T03:34:41.597Z,11.74
2022-10-28T03:37:08.458Z,11.74
2022-10-28T03:39:35.832Z,11.71
2022-10-28T03:42:02.592Z,11.72
2022-10-28T03:44:29.489Z,11.75
2022-10-28T03:46:56.274Z,11.77
2022-10-28T03:49:23.138Z,11.73
2022-10-28T03:51:49.936Z,11.71
2022-10-28T03:54:16.738Z,11.74
2022-10-28T03:56:43.556Z,11.78
2022-10-28T03:59:10.659Z,11.80
2022-10-28T04:01:37.534Z,11.78
2022-10-28T04:04:04.758Z,11.80
2022-10-28T04:06:31.558Z,11.74
2022-10-28T04:08:58.428Z,11.70
2022-10-28T04:11:25.198Z,11.66
2022-10-28T04:13:52.029Z,11.54
2022-10-28T04:16:18.822Z,11.49
2022-10-28T04:18:45.722Z,11.48
2022-10-28T04:21:12.620Z,11.47
2022-10-28T04:23:39.401Z,11.46
2022-10-28T04:26:06.215Z,11.51
2022-10-28T04:28:33.120Z,11.47
2022-10-28T04:31:01.569Z,11.39
2022-10-28T04:33:28.996Z,11.38
2022-10-28T04:35:55.776Z,11.34
2022-10-28T04:40:55.404Z,11.32
2022-10-28T04:43:22.181Z,11.29
2022-10-28T04:45:48.956Z,11.27
2022-10-28T04:48:15.739Z,11.29
2022-10-28T04:50:42.577Z,11.29
2022-10-28T04:53:09.347Z,11.29
2022-10-28T04:55:36.129Z,11.28
2022-10-28T04:58:03.050Z,11.33
2022-10-28T05:00:30.537Z,11.37
2022-10-28T05:03:01.116Z,11.41
2022-10-28T05:05:27.898Z,11.40
2022-10-28T05:07:54.996Z,11.44
2022-10-28T05:10:22.111Z,11.51
2022-10-28T05:12:48.905Z,11.59
2022-10-28T05:15:15.878Z,11.68
2022-10-28T05:17:47.263Z,11.73
2022-10-28T05:20:17.325Z,11.79
2022-10-28T05:22:50.109Z,11.85
2022-10-28T05:25:17.956Z,11.84
2022-10-28T05:27:44.889Z,11.77
2022-10-28T05:30:13.001Z,11.80
2022-10-28T05:32:39.800Z,11.86
2022-10-28T05:35:07.570Z,11.83
2022-10-28T05:37:34.499Z,11.79
2022-10-28T05:40:01.271Z,11.70
2022-10-28T05:42:28.079Z,11.59
2022-10-28T05:44:54.843Z,11.54
2022-10-28T05:47:21.625Z,11.54
2022-10-28T05:49:48.402Z,11.56
2022-10-28T05:52:15.196Z,11.62
2022-10-28T05:54:41.952Z,11.70
2022-10-28T05:57:08.827Z,11.74
2022-10-28T05:59:35.627Z,11.77
2022-10-28T06:02:02.502Z,11.82
2022-10-28T06:04:29.577Z,11.90
2022-10-28T06:06:56.379Z,11.89
2022-10-28T06:09:23.170Z,11.92
2022-10-28T06:11:48.472Z,11.95
2022-10-28T06:14:15.258Z,12.03
2022-10-28T06:16:42.314Z,12.15
2022-10-28T06:19:09.094Z,12.17
2022-10-28T06:21:35.897Z,12.28
2022-10-28T06:24:03.047Z,12.43
2022-10-28T06:26:29.917Z,12.49
2022-10-28T06:28:56.709Z,12.52
2022-10-28T06:31:23.543Z,12.58
2022-10-28T06:33:50.383Z,12.70
2022-10-28T06:36:17.159Z,12.80
2022-10-28T06:38:44.017Z,12.83
2022-10-28T06:41:10.773Z,12.79
2022-10-28T06:43:37.574Z,12.92
2022-10-28T06:46:04.411Z,13.10
2022-10-28T06:48:32.707Z,13.09
2022-10-28T06:50:59.603Z,13.15
2022-10-28T06:53:26.431Z,13.29
2022-10-28T06:55:58.009Z,13.50
2022-10-28T06:58:26.198Z,13.71
2022-10-28T07:00:53.649Z,13.90
2022-10-28T07:03:20.432Z,14.04
2022-10-28T07:05:49.890Z,14.27
2022-10-28T07:08:17.118Z,14.40
2022-10-28T07:10:43.904Z,14.62
2022-10-28T07:13:10.750Z,14.72
2022-10-28T07:15:37.548Z,14.83
2022-10-28T07:18:04.568Z,15.13
2022-10-28T07:20:32.886Z,15.36
2022-10-28T07:23:02.267Z,15.75
2022-10-28T07:25:30.775Z,16.02
2022-10-28T07:27:58.915Z,16.55
2022-10-28T07:30:26.695Z,17.15
2022-10-28T07:32:54.314Z,17.80
2022-10-28T07:35:21.851Z,18.53
2022-10-28T07:37:48.655Z,19.04
2022-10-28T07:40:15.461Z,19.46
2022-10-28T07:42:42.263Z,19.88
2022-10-28T07:45:09.542Z,20.59
2022-10-28T07:47:36.354Z,21.11
2022-10-28T07:50:03.972Z,21.15
2022-10-28T07:52:30.813Z,21.55
2022-10-28T07:54:57.710Z,21.80
2022-10-28T07:57:24.493Z,22.15
2022-10-28T07:59:51.327Z,22.46
2022-10-28T08:02:22.863Z,22.73
2022-10-28T08:04:50.028Z,23.07
2022-10-28T08:07:18.220Z,23.34
2022-10-28T08:09:45.283Z,23.01
2022-10-28T08:12:16.076Z,22.70
2022-10-28T08:14:42.976Z,22.13
2022-10-28T08:17:10.378Z,21.46
2022-10-28T08:19:37.211Z,21.49
2022-10-28T08:22:04.374Z,21.28
2022-10-28T08:24:31.141Z,21.63
2022-10-28T08:26:58.011Z,21.91
2022-10-28T08:29:29.111Z,22.57
2022-10-28T08:31:57.753Z,23.19
2022-10-28T08:34:29.331Z,23.54
2022-10-28T08:36:57.102Z,23.40
2022-10-28T08:39:23.987Z,23.67
2022-10-28T08:42:05.090Z,23.77
2022-10-28T08:45:15.765Z,23.67
2022-10-28T08:48:11.565Z,23.15
2022-10-28T08:50:58.339Z,23.67
2022-10-28T08:53:37.036Z,24.49
2022-10-28T08:56:28.130Z,24.28
2022-10-28T08:59:00.253Z,24.96
2022-10-28T09:01:47.640Z,24.61
2022-10-28T09:04:40.440Z,24.36
2022-10-28T09:07:16.703Z,24.11
2022-10-28T09:09:47.224Z,23.70
2022-10-28T09:12:50.479Z,23.60
2022-10-28T09:15:32.196Z,23.79
2022-10-28T09:18:30.727Z,24.25
2022-10-28T09:21:03.426Z,24.13
2022-10-28T09:23:32.761Z,25.07
2022-10-28T09:26:28.338Z,25.12
2022-10-28T09:29:30.987Z,25.47
2022-10-28T09:32:36.091Z,25.72
2022-10-28T09:35:25.966Z,26.47
2022-10-28T09:38:16.080Z,26.63
2022-10-28T09:40:52.381Z,26.39
2022-10-28T09:43:34.203Z,25.39
2022-10-28T09:46:07.770Z,24.69
2022-10-28T09:48:39.572Z,24.50
2022-10-28T09:51:06.436Z,24.01
2022-10-28T09:53:39.850Z,24.70
2022-10-28T09:58:45.964Z,25.99
2022-10-28T10:01:13.843Z,26.63
2022-10-28T10:03:41.782Z,26.89
2022-10-28T10:06:16.668Z,27.17
2022-10-28T10:08:45.119Z,27.03
2022-10-28T10:11:30.669Z,27.86
2022-10-28T10:14:08.429Z,28.68
2022-10-28T10:16:54.117Z,29.11
2022-10-28T10:19:21.183Z,30.12
2022-10-28T10:21:49.941Z,30.18
2022-10-28T10:24:36.026Z,29.59
2022-10-28T10:27:10.178Z,30.73
2022-10-28T10:29:44.648Z,30.87
2022-10-28T10:32:30.768Z,31.37
2022-10-28T10:35:34.712Z,32.13
2022-10-28T10:38:05.358Z,32.84
2022-10-28T10:40:50.247Z,33.00
2022-10-28T10:43:34.456Z,32.87
2022-10-28T10:46:05.198Z,32.99
2022-10-28T10:48:38.802Z,31.93
2022-10-28T10:51:22.458Z,31.39
2022-10-28T10:53:54.617Z,31.08
2022-10-28T10:56:33.113Z,30.58
2022-10-28T10:59:22.331Z,29.80
2022-10-28T11:01:49.428Z,29.41
2022-10-28T11:04:18.926Z,30.01
2022-10-28T11:06:52.459Z,29.72
2022-10-28T11:09:39.067Z,29.68
2022-10-28T11:12:15.901Z,30.15
2022-10-28T11:15:01.486Z,30.11
2022-10-28T11:20:30.949Z,30.83
2022-10-28T11:23:42.400Z,30.82
2022-10-28T11:26:13.879Z,30.25
2022-10-28T11:29:07.499Z,30.30
2022-10-28T11:31:52.374Z,30.17
2022-10-28T11:34:56.354Z,30.42
2022-10-28T11:37:39.120Z,31.46
2022-10-28T11:40:54.883Z,32.44
2022-10-28T11:43:54.593Z,33.35
2022-10-28T11:46:43.394Z,32.98
2022-10-28T11:49:28.647Z,34.15
2022-10-28T11:52:29.897Z,34.85
2022-10-28T11:55:39.805Z,34.93
2022-10-28T11:58:44.066Z,35.84
2022-10-28T12:01:49.586Z,36.86
2022-10-28T12:05:16.886Z,37.36
2022-10-28T12:08:30.864Z,35.61
2022-10-28T12:11:21.555Z,35.28
2022-10-28T12:14:03.530Z,34.60
2022-10-28T12:16:45.244Z,33.40
2022-10-28T12:19:35.942Z,33.05
2022-10-28T12:22:22.094Z,32.62
2022-10-28T12:24:50.816Z,32.07
2022-10-28T12:27:26.293Z,32.10
2022-10-28T12:30:00.095Z,32.13
2022-10-28T12:32:31.321Z,32.22
2022-10-28T12:35:17.847Z,32.06
2022-10-28T12:38:15.381Z,32.03
2022-10-28T12:40:49.515Z,31.59
2022-10-28T12:43:30.178Z,31.34
2022-10-28T12:45:57.644Z,31.23
2022-10-28T12:48:45.691Z,31.05
2022-10-28T12:51:25.671Z,30.47
2022-10-28T12:54:04.821Z,30.26
2022-10-28T12:56:49.070Z,30.12
2022-10-28T12:59:35.469Z,29.77
2022-10-28T13:02:04.523Z,29.46
2022-10-28T13:04:31.575Z,29.10
2022-10-28T13:07:17.081Z,29.16
2022-10-28T13:13:26.627Z,28.89
2022-10-28T13:16:37.800Z,28.53
2022-10-28T13:19:49.229Z,28.46
2022-10-28T13:22:46.244Z,28.43
2022-10-28T13:25:58.628Z,28.11
2022-10-28T13:28:35.203Z,28.07
2022-10-28T13:31:07.316Z,28.58
2022-10-28T13:33:37.380Z,28.57
2022-10-28T13:36:30.113Z,29.42
2022-10-28T13:39:00.836Z,31.42
2022-10-28T13:41:30.780Z,34.06
2022-10-28T13:44:08.596Z,35.75
2022-10-28T13:47:00.309Z,36.64
2022-10-28T13:49:37.600Z,37.02
2022-10-28T13:52:07.298Z,36.86
2022-10-28T13:54:42.600Z,37.60
2022-10-28T13:57:30.961Z,37.29
2022-10-28T14:00:22.204Z,38.33
2022-10-28T14:02:58.871Z,39.10
2022-10-28T14:05:38.210Z,38.53
2022-10-28T14:08:26.950Z,37.03
2022-10-28T14:11:23.049Z,36.97
2022-10-28T14:13:55.844Z,38.37
2022-10-28T14:16:30.353Z,38.51
2022-10-28T14:19:11.265Z,38.90
2022-10-28T14:22:02.447Z,38.94
2022-10-28T14:24:44.752Z,39.23
2022-10-28T14:27:43.931Z,39.08
2022-10-28T14:30:20.188Z,38.63
2022-10-28T14:32:49.761Z,37.92
2022-10-28T14:35:16.554Z,37.65
2022-10-28T14:38:22.583Z,37.17
2022-10-28T14:41:30.065Z,36.06
2022-10-28T14:44:23.679Z,35.85
2022-10-28T14:47:48.917Z,34.82
2022-10-28T14:50:26.455Z,35.05
2022-10-28T14:52:55.571Z,35.04
2022-10-28T14:55:32.886Z,34.87
2022-10-28T14:58:37.111Z,34.00
2022-10-28T15:01:18.790Z,32.49
2022-10-28T15:04:01.003Z,30.98
2022-10-28T15:06:40.551Z,29.91
2022-10-28T15:09:25.378Z,28.92
2022-10-28T15:12:06.464Z,28.34
2022-10-28T15:14:42.406Z,27.98
2022-10-28T15:17:17.194Z,27.37
2022-10-28T15:19:53.473Z,27.03
2022-10-28T15:22:24.902Z,26.43
2022-10-28T15:25:10.498Z,26.18
2022-10-28T15:27:40.874Z,25.82
2022-10-28T15:30:23.678Z,25.67
2022-10-28T15:32:55.402Z,25.68
2022-10-28T15:35:32.725Z,25.55
2022-10-28T15:38:01.987Z,25.45
2022-10-28T15:40:34.664Z,25.15
2022-10-28T15:43:17.907Z,24.69
2022-10-28T15:45:45.831Z,24.57
2022-10-28T15:48:15.218Z,24.16
2022-10-28T15:50:42.376Z,23.96
2022-10-28T15:53:12.468Z,23.86
2022-10-28T15:58:35.992Z,23.51
2022-10-28T16:01:03.042Z,23.38
2022-10-28T16:03:47.228Z,23.17
2022-10-28T16:06:40.625Z,23.05
2022-10-28T16:09:20.363Z,22.86
2022-10-28T16:11:52.004Z,22.73
2022-10-28T16:14:42.308Z,22.77
2022-10-28T16:17:20.010Z,22.67
2022-10-28T16:20:16.968Z,22.55
2022-10-28T16:22:46.549Z,22.42
2022-10-28T16:25:17.540Z,22.31
2022-10-28T16:27:44.377Z,22.19
2022-10-28T16:30:11.902Z,22.18
2022-10-28T16:32:48.835Z,22.01
2022-10-28T16:35:23.012Z,21.95
2022-10-28T16:37:54.679Z,21.90
2022-10-28T16:40:49.693Z,21.85
2022-10-28T16:43:17.029Z,21.79
2022-10-28T16:45:43.836Z,21.79
2022-10-28T16:48:16.196Z,21.73
2022-10-28T16:51:01.800Z,21.59
2022-10-28T16:53:29.235Z,21.55
2022-10-28T16:55:58.928Z,21.51
2022-10-28T16:58:29.125Z,21.47
2022-10-28T17:00:57.512Z,21.43
2022-10-28T17:03:24.597Z,21.26
2022-10-28T17:05:52.057Z,21.18
2022-10-28T17:08:36.114Z,21.17
2022-10-28T17:11:04.620Z,21.10
2022-10-28T17:13:31.960Z,21.06
2022-10-28T17:15:58.747Z,20.97
2022-10-28T17:18:25.574Z,20.90
2022-10-28T17:21:02.945Z,20.80
2022-10-28T17:23:30.319Z,20.69
2022-10-28T17:26:02.366Z,20.58
2022-10-28T17:28:29.701Z,20.54
2022-10-28T17:31:05.267Z,20.27
2022-10-28T17:33:32.428Z,20.22
2022-10-28T17:36:08.541Z,20.16
2022-10-28T17:38:35.766Z,20.14
2022-10-28T17:41:02.639Z,20.15
2022-10-28T17:43:29.447Z,20.11
2022-10-28T17:46:07.216Z,19.94
2022-10-28T17:48:34.792Z,19.87
2022-10-28T17:51:01.710Z,19.84
2022-10-28T17:53:28.527Z,19.84
2022-10-28T17:56:00.383Z,19.82
2022-10-28T17:58:28.189Z,19.75
2022-10-28T18:01:08.647Z,19.77
2022-10-28T18:03:39.193Z,19.78
2022-10-28T18:06:13.138Z,19.76
2022-10-28T18:08:43.184Z,19.75
2022-10-28T18:11:13.736Z,19.73
2022-10-28T18:13:45.051Z,19.69
2022-10-28T18:16:16.192Z,19.70
2022-10-28T18:18:43.752Z,19.74
2022-10-28T18:21:11.933Z,19.77
2022-10-28T18:23:41.167Z,19.75
2022-10-28T18:26:14.524Z,19.70
2022-10-28T18:28:44.059Z,19.60
2022-10-28T18:31:14.557Z,19.69
2022-10-28T18:33:43.393Z,19.73
2022-10-28T18:36:33.979Z,19.76
2022-10-28T18:39:03.206Z,19.76
2022-10-28T18:41:32.146Z,19.74
2022-10-28T18:44:02.476Z,19.74
2022-10-28T18:46:33.188Z,19.72
2022-10-28T18:51:28.666Z,19.63
2022-10-28T18:53:57.012Z,19.61
2022-10-28T18:56:29.398Z,19.58
2022-10-28T18:58:58.112Z,19.66
2022-10-28T19:01:27.913Z,19.66
2022-10-28T19:03:57.575Z,19.67
2022-10-28T19:06:26.217Z,19.65
2022-10-28T19:08:57.619Z,19.65
2022-10-28T19:11:30.277Z,19.59
2022-10-28T19:14:05.882Z,19.59
2022-10-28T19:16:34.452Z,19.67
2022-10-28T19:19:03.597Z,19.65
2022-10-28T19:21:31.066Z,19.65
2022-10-28T19:23:58.352Z,19.69
2022-10-28T19:26:25.622Z,19.68
2022-10-28T19:28:52.945Z,19.72
2022-10-28T19:31:23.612Z,19.47
2022-10-28T19:33:53.983Z,19.44
2022-10-28T19:36:23.353Z,19.34
2022-10-28T19:38:53.950Z,19.14
2022-10-28T19:41:24.809Z,19.28
2022-10-28T19:43:58.926Z,19.30
2022-10-28T19:46:31.949Z,19.22
2022-10-28T19:49:01.208Z,19.15
2022-10-28T19:51:31.749Z,19.19
2022-10-28T19:54:05.627Z,19.14
2022-10-28T19:56:35.711Z,18.97
2022-10-28T19:59:04.467Z,18.93
2022-10-28T20:01:36.000Z,18.82
2022-10-28T20:04:04.259Z,18.82
2022-10-28T20:06:34.551Z,18.86
2022-10-28T20:09:01.896Z,18.86
2022-10-28T20:11:32.697Z,18.81
2022-10-28T20:14:04.039Z,18.73
2022-10-28T20:16:32.847Z,18.64
2022-10-28T20:19:00.394Z,18.57
2022-10-28T20:21:30.613Z,18.54
2022-10-28T20:23:58.160Z,18.53
2022-10-28T20:26:34.596Z,18.51
2022-10-28T20:29:03.057Z,18.33
2022-10-28T20:31:32.091Z,18.34
2022-10-28T20:34:03.415Z,18.26
2022-10-28T20:36:36.905Z,18.31
2022-10-28T20:39:12.559Z,18.31
2022-10-28T20:41:40.640Z,18.32
2022-10-28T20:44:08.110Z,18.27
2022-10-28T20:46:35.546Z,18.33
2022-10-28T20:49:03.488Z,18.34
2022-10-28T20:51:32.459Z,18.34
2022-10-28T20:54:00.079Z,18.34
2022-10-28T20:56:30.360Z,18.34
2022-10-28T20:59:00.883Z,18.29
2022-10-28T21:01:31.025Z,18.23
2022-10-28T21:04:00.824Z,18.22
2022-10-28T21:06:29.095Z,18.23
2022-10-28T21:08:56.560Z,18.19
2022-10-28T21:11:24.531Z,18.16
2022-10-28T21:13:58.523Z,18.12
2022-10-28T21:16:27.366Z,18.07
2022-10-28T21:18:54.660Z,17.98
2022-10-28T21:21:23.840Z,17.92
2022-10-28T21:23:51.146Z,17.91
2022-10-28T21:26:17.966Z,17.89
2022-10-28T21:28:48.764Z,17.85
2022-10-28T21:31:18.005Z,17.83
2022-10-28T21:33:45.498Z,17.89
2022-10-28T21:36:18.468Z,17.87
2022-10-28T21:38:45.600Z,17.89
2022-10-28T21:41:20.178Z,17.88
2022-10-28T21:43:50.178Z,17.85
2022-10-28T21:46:21.870Z,17.82
2022-10-28T21:48:48.988Z,17.81
2022-10-28T21:51:17.077Z,17.82
2022-10-28T21:53:45.153Z,17.83
2022-10-28T21:56:17.659Z,17.83
2022-10-28T21:58:47.402Z,17.83
2022-10-28T22:01:22.270Z,17.79
2022-10-28T22:03:51.000Z,17.80
2022-10-28T22:06:17.826Z,17.75
2022-10-28T22:08:44.824Z,17.82
2022-10-28T22:11:20.749Z,17.79
2022-10-28T22:14:02.584Z,17.81
2022-10-28T22:16:32.787Z,17.80
2022-10-28T22:19:03.360Z,17.75
2022-10-28T22:21:33.929Z,17.68
2022-10-28T22:24:01.080Z,17.59
2022-10-28T22:26:30.610Z,17.56
2022-10-28T22:28:58.120Z,17.44
2022-10-28T22:31:28.720Z,17.38
2022-10-28T22:33:56.911Z,17.17
2022-10-28T22:36:26.487Z,17.11
2022-10-28T22:38:53.723Z,17.06
2022-10-28T22:41:23.953Z,16.98
2022-10-28T22:43:56.599Z,16.96
2022-10-28T22:46:27.381Z,16.89
2022-10-28T22:48:54.958Z,16.81
2022-10-28T22:51:22.784Z,16.76
2022-10-28T22:53:49.883Z,16.67
2022-10-28T22:56:20.297Z,16.59
2022-10-28T22:58:48.578Z,16.51
2022-10-28T23:01:18.847Z,16.44
2022-10-28T23:03:48.717Z,16.33
2022-10-28T23:06:18.137Z,16.27
2022-10-28T23:08:45.842Z,16.18
2022-10-28T23:11:14.840Z,16.15
2022-10-28T23:13:41.674Z,16.07
2022-10-28T23:16:11.743Z,16.07
2022-10-28T23:18:39.053Z,16.03
2022-10-28T23:21:23.716Z,15.98
2022-10-28T23:23:59.092Z,15.95
2022-10-28T23:26:28.650Z,15.89
2022-10-28T23:28:58.743Z,15.84
2022-10-28T23:31:26.456Z,15.75
2022-10-28T23:33:54.892Z,15.60
2022-10-28T23:36:22.263Z,15.59
2022-10-28T23:38:49.083Z,15.56
2022-10-28T23:41:18.707Z,15.51
2022-10-28T23:43:47.104Z,15.50
2022-10-28T23:46:13.949Z,15.48
2022-10-28T23:48:40.753Z,15.45
2022-10-28T23:51:08.095Z,15.39
2022-10-28T23:53:35.293Z,15.42
2022-10-28T23:56:02.102Z,15.43
2022-10-28T23:58:28.970Z,15.37
